sensor_id;sensor_type;location;lat;lon;timestamp;pressure;altitude;pressure_sealevel;temperature;humidity
2268;BME280;11052;43.338;25.502;2023-10-13T00:01:54;100978.66;;;9.14;100.00
2268;BME280;11052;43.338;25.502;2023-10-13T00:04:21;100967.47;;;9.12;100.00
2268;BME280;11052;43.338;25.502;2023-10-13T00:06:52;100969.38;;;8.98;99.55
2268;BME280;11052;43.338;25.502;2023-10-13T00:09:19;100970.19;;;9.02;98.38
2268;BME280;11052;43.338;25.502;2023-10-13T00:11:50;100962.47;;;9.00;96.37
2268;BME280;11052;43.338;25.502;2023-10-13T00:14:18;100971.19;;;8.92;95.74
2268;BME280;11052;43.338;25.502;2023-10-13T00:16:46;100969.44;;;8.94;94.50
2268;BME280;11052;43.338;25.502;2023-10-13T00:19:28;100960.78;;;8.96;94.90
2268;BME280;11052;43.338;25.502;2023-10-13T00:22:05;100966.00;;;8.92;94.65
2268;BME280;11052;43.338;25.502;2023-10-13T00:24:39;100970.44;;;8.82;95.37
2268;BME280;11052;43.338;25.502;2023-10-13T00:27:11;100969.53;;;8.86;95.95
2268;BME280;11052;43.338;25.502;2023-10-13T00:29:54;100965.28;;;8.80;95.53
2268;BME280;11052;43.338;25.502;2023-10-13T00:32:41;100972.19;;;8.78;93.65
2268;BME280;11052;43.338;25.502;2023-10-13T00:35:10;100974.09;;;8.66;93.10
2268;BME280;11052;43.338;25.502;2023-10-13T00:37:42;100967.09;;;8.74;92.17
2268;BME280;11052;43.338;25.502;2023-10-13T00:40:10;100979.09;;;8.78;93.80
2268;BME280;11052;43.338;25.502;2023-10-13T00:42:52;100969.66;;;8.74;92.84
2268;BME280;11052;43.338;25.502;2023-10-13T00:45:20;100967.97;;;8.71;92.55
2268;BME280;11052;43.338;25.502;2023-10-13T00:47:46;100974.13;;;8.63;92.84
2268;BME280;11052;43.338;25.502;2023-10-13T00:50:17;100974.19;;;8.60;92.15
2268;BME280;11052;43.338;25.502;2023-10-13T00:52:46;100975.00;;;8.62;93.46
2268;BME280;11052;43.338;25.502;2023-10-13T00:55:19;100964.63;;;8.65;96.49
2268;BME280;11052;43.338;25.502;2023-10-13T00:57:51;100969.81;;;8.63;98.48
2268;BME280;11052;43.338;25.502;2023-10-13T01:00:20;100969.03;;;8.58;100.00
2268;BME280;11052;43.338;25.502;2023-10-13T01:02:52;100967.28;;;8.59;100.00
2268;BME280;11052;43.338;25.502;2023-10-13T01:05:22;100969.91;;;8.57;100.00
2268;BME280;11052;43.338;25.502;2023-10-13T01:07:50;100974.22;;;8.57;100.00
2268;BME280;11052;43.338;25.502;2023-10-13T01:10:19;100974.22;;;8.55;100.00
2268;BME280;11052;43.338;25.502;2023-10-13T01:12:45;100973.41;;;8.51;100.00
2268;BME280;11052;43.338;25.502;2023-10-13T01:15:13;100975.13;;;8.51;100.00
2268;BME280;11052;43.338;25.502;2023-10-13T01:17:43;100976.00;;;8.50;100.00
2268;BME280;11052;43.338;25.502;2023-10-13T01:20:12;100976.03;;;8.47;100.00
2268;BME280;11052;43.338;25.502;2023-10-13T01:22:44;100979.50;;;8.44;100.00
2268;BME280;11052;43.338;25.502;2023-10-13T01:25:16;100986.41;;;8.42;100.00
2268;BME280;11052;43.338;25.502;2023-10-13T01:27:45;100985.56;;;8.42;100.00
2268;BME280;11052;43.338;25.502;2023-10-13T01:30:14;100992.47;;;8.40;100.00
2268;BME280;11052;43.338;25.502;2023-10-13T01:32:41;100992.47;;;8.38;100.00
2268;BME280;11052;43.338;25.502;2023-10-13T01:35:11;100990.81;;;8.33;100.00
2268;BME280;11052;43.338;25.502;2023-10-13T01:37:37;100992.59;;;8.21;100.00
2268;BME280;11052;43.338;25.502;2023-10-13T01:40:05;100989.97;;;8.28;100.00
2268;BME280;11052;43.338;25.502;2023-10-13T01:42:32;100995.09;;;8.31;100.00
2268;BME280;11052;43.338;25.502;2023-10-13T01:45:02;100991.66;;;8.30;100.00
2268;BME280;11052;43.338;25.502;2023-10-13T01:47:31;100990.81;;;8.30;100.00
2268;BME280;11052;43.338;25.502;2023-10-13T01:49:58;100980.47;;;8.33;100.00
2268;BME280;11052;43.338;25.502;2023-10-13T01:52:32;100988.22;;;8.33;100.00
2268;BME280;11052;43.338;25.502;2023-10-13T01:54:59;100994.25;;;8.33;100.00
2268;BME280;11052;43.338;25.502;2023-10-13T01:57:26;100982.22;;;8.28;100.00
2268;BME280;11052;43.338;25.502;2023-10-13T01:59:55;100984.00;;;8.22;100.00
2268;BME280;11052;43.338;25.502;2023-10-13T02:02:21;100984.03;;;8.16;100.00
2268;BME280;11052;43.338;25.502;2023-10-13T02:04:55;100982.31;;;8.17;100.00
2268;BME280;11052;43.338;25.502;2023-10-13T02:07:23;100984.97;;;8.11;100.00
2268;BME280;11052;43.338;25.502;2023-10-13T02:09:55;100985.84;;;8.07;100.00
2268;BME280;11052;43.338;25.502;2023-10-13T02:12:21;100981.53;;;8.10;100.00
2268;BME280;11052;43.338;25.502;2023-10-13T02:14:56;100978.94;;;8.10;100.00
2268;BME280;11052;43.338;25.502;2023-10-13T02:17:26;100978.09;;;8.07;100.00
2268;BME280;11052;43.338;25.502;2023-10-13T02:19:52;100976.41;;;8.03;100.00
2268;BME280;11052;43.338;25.502;2023-10-13T02:22:19;100977.25;;;8.05;100.00
2268;BME280;11052;43.338;25.502;2023-10-13T02:24:53;100979.06;;;7.94;100.00
2268;BME280;11052;43.338;25.502;2023-10-13T02:27:27;100979.09;;;7.92;100.00
2268;BME280;11052;43.338;25.502;2023-10-13T02:29:53;100981.69;;;7.90;100.00
2268;BME280;11052;43.338;25.502;2023-10-13T02:32:25;100978.25;;;7.88;100.00
2268;BME280;11052;43.338;25.502;2023-10-13T02:34:52;100975.69;;;7.87;100.00
2268;BME280;11052;43.338;25.502;2023-10-13T02:37:23;100975.69;;;7.85;100.00
2268;BME280;11052;43.338;25.502;2023-10-13T02:39:49;100971.41;;;7.86;100.00
2268;BME280;11052;43.338;25.502;2023-10-13T02:42:16;100974.84;;;7.86;100.00
2268;BME280;11052;43.338;25.502;2023-10-13T02:44:48;100986.03;;;7.85;100.00
2268;BME280;11052;43.338;25.502;2023-10-13T02:47:16;100987.75;;;7.83;100.00
2268;BME280;11052;43.338;25.502;2023-10-13T02:49:45;100991.19;;;7.87;100.00
2268;BME280;11052;43.338;25.502;2023-10-13T02:52:13;100990.41;;;7.79;100.00
2268;BME280;11052;43.338;25.502;2023-10-13T02:54:39;100992.94;;;7.82;100.00
2268;BME280;11052;43.338;25.502;2023-10-13T02:57:12;100999.03;;;7.78;100.00
2268;BME280;11052;43.338;25.502;2023-10-13T02:59:41;100999.03;;;7.76;100.00
2268;BME280;11052;43.338;25.502;2023-10-13T03:02:13;100998.22;;;7.71;100.00
2268;BME280;11052;43.338;25.502;2023-10-13T03:04:51;100999.09;;;7.67;100.00
2268;BME280;11052;43.338;25.502;2023-10-13T03:07:24;100998.28;;;7.61;100.00
2268;BME280;11052;43.338;25.502;2023-10-13T03:09:54;100993.06;;;7.67;100.00
2268;BME280;11052;43.338;25.502;2023-10-13T03:12:24;100989.66;;;7.65;100.00
2268;BME280;11052;43.338;25.502;2023-10-13T03:14:50;100994.84;;;7.62;100.00
2268;BME280;11052;43.338;25.502;2023-10-13T03:17:37;100996.53;;;7.64;100.00
2268;BME280;11052;43.338;25.502;2023-10-13T03:20:11;100997.44;;;7.59;100.00
2268;BME280;11052;43.338;25.502;2023-10-13T03:22:40;100997.47;;;7.54;100.00
2268;BME280;11052;43.338;25.502;2023-10-13T03:25:06;100995.75;;;7.53;100.00
2268;BME280;11052;43.338;25.502;2023-10-13T03:27:39;100994.00;;;7.56;100.00
2268;BME280;11052;43.338;25.502;2023-10-13T03:30:27;100981.97;;;7.59;100.00
2268;BME280;11052;43.338;25.502;2023-10-13T03:33:04;100986.28;;;7.56;100.00
2268;BME280;11052;43.338;25.502;2023-10-13T03:35:37;100991.44;;;7.55;100.00
2268;BME280;11052;43.338;25.502;2023-10-13T03:38:06;100978.53;;;7.56;100.00
2268;BME280;11052;43.338;25.502;2023-10-13T03:40:42;100981.97;;;7.57;100.00
2268;BME280;11052;43.338;25.502;2023-10-13T03:43:14;100977.69;;;7.51;100.00
2268;BME280;11052;43.338;25.502;2023-10-13T03:45:49;100985.47;;;7.48;100.00
2268;BME280;11052;43.338;25.502;2023-10-13T03:48:19;100993.19;;;7.48;100.00
2268;BME280;11052;43.338;25.502;2023-10-13T03:50:57;100984.63;;;7.46;100.00
2268;BME280;11052;43.338;25.502;2023-10-13T03:53:29;100985.47;;;7.48;100.00
2268;BME280;11052;43.338;25.502;2023-10-13T03:55:59;100982.88;;;7.48;100.00
2268;BME280;11052;43.338;25.502;2023-10-13T03:58:38;100991.53;;;7.40;100.00
2268;BME280;11052;43.338;25.502;2023-10-13T04:01:11;100984.72;;;7.28;100.00
2268;BME280;11052;43.338;25.502;2023-10-13T04:03:40;100987.31;;;7.27;100.00
2268;BME280;11052;43.338;25.502;2023-10-13T04:06:24;100986.47;;;7.23;100.00
2268;BME280;11052;43.338;25.502;2023-10-13T04:09:14;100976.16;;;7.20;100.00
2268;BME280;11052;43.338;25.502;2023-10-13T04:12:10;100975.34;;;7.12;100.00
2268;BME280;11052;43.338;25.502;2023-10-13T04:14:45;100975.34;;;7.13;100.00
2268;BME280;11052;43.338;25.502;2023-10-13T04:17:29;100971.91;;;7.13;100.00
2268;BME280;11052;43.338;25.502;2023-10-13T04:20:00;100977.88;;;7.21;100.00
2268;BME280;11052;43.338;25.502;2023-10-13T04:22:48;100971.84;;;7.27;100.00
2268;BME280;11052;43.338;25.502;2023-10-13T04:25:36;100977.00;;;7.25;100.00
2268;BME280;11052;43.338;25.502;2023-10-13T04:28:18;100978.72;;;7.23;100.00
2268;BME280;11052;43.338;25.502;2023-10-13T04:30:59;100979.63;;;7.16;100.00
2268;BME280;11052;43.338;25.502;2023-10-13T04:33:37;100983.03;;;7.21;100.00
2268;BME280;11052;43.338;25.502;2023-10-13T04:36:16;100986.44;;;7.29;100.00
2268;BME280;11052;43.338;25.502;2023-10-13T04:38:49;100994.16;;;7.32;100.00
2268;BME280;11052;43.338;25.502;2023-10-13T04:41:24;100998.47;;;7.27;100.00
2268;BME280;11052;43.338;25.502;2023-10-13T04:43:57;101005.38;;;7.22;100.00
2268;BME280;11052;43.338;25.502;2023-10-13T04:46:31;101013.06;;;7.30;100.00
2268;BME280;11052;43.338;25.502;2023-10-13T04:49:20;101020.78;;;7.39;100.00
2268;BME280;11052;43.338;25.502;2023-10-13T04:51:55;101019.75;;;7.66;100.00
2268;BME280;11052;43.338;25.502;2023-10-13T04:54:41;101026.34;;;8.02;100.00
2268;BME280;11052;43.338;25.502;2023-10-13T04:57:20;101020.03;;;8.38;100.00
2268;BME280;11052;43.338;25.502;2023-10-13T04:59:57;101029.31;;;8.59;100.00
2268;BME280;11052;43.338;25.502;2023-10-13T05:02:53;101027.22;;;8.90;100.00
2268;BME280;11052;43.338;25.502;2023-10-13T05:05:43;101026.91;;;9.15;100.00
2268;BME280;11052;43.338;25.502;2023-10-13T05:08:27;101040.41;;;9.39;100.00
2268;BME280;11052;43.338;25.502;2023-10-13T05:11:13;101043.53;;;9.62;100.00
2268;BME280;11052;43.338;25.502;2023-10-13T05:13:57;101041.44;;;9.85;100.00
2268;BME280;11052;43.338;25.502;2023-10-13T05:16:42;101053.44;;;9.93;100.00
2268;BME280;11052;43.338;25.502;2023-10-13T05:19:26;101058.25;;;10.15;100.00
2268;BME280;11052;43.338;25.502;2023-10-13T05:22:11;101050.78;;;10.49;100.00
2268;BME280;11052;43.338;25.502;2023-10-13T05:24:55;101059.63;;;10.86;100.00
2268;BME280;11052;43.338;25.502;2023-10-13T05:27:41;101072.19;;;11.07;100.00
2268;BME280;11052;43.338;25.502;2023-10-13T05:30:25;101073.28;;;11.37;97.63
2268;BME280;11052;43.338;25.502;2023-10-13T05:33:10;101071.69;;;11.70;96.08
2268;BME280;11052;43.338;25.502;2023-10-13T05:35:54;101068.50;;;11.97;91.57
2268;BME280;11052;43.338;25.502;2023-10-13T05:38:38;101073.59;;;12.02;90.33
2268;BME280;11052;43.338;25.502;2023-10-13T05:41:23;101079.19;;;12.21;89.58
2268;BME280;11052;43.338;25.502;2023-10-13T05:44:09;101075.47;;;12.31;88.00
2268;BME280;11052;43.338;25.502;2023-10-13T05:46:53;101073.91;;;12.58;88.07
2268;BME280;11052;43.338;25.502;2023-10-13T05:49:59;101074.22;;;12.79;85.72
2268;BME280;11052;43.338;25.502;2023-10-13T05:52:31;101074.50;;;12.69;86.88
2268;BME280;11052;43.338;25.502;2023-10-13T05:55:15;101067.63;;;12.66;85.74
2268;BME280;11052;43.338;25.502;2023-10-13T05:57:59;101071.56;;;12.81;86.44
2268;BME280;11052;43.338;25.502;2023-10-13T06:00:45;101081.81;;;13.49;84.18
2268;BME280;11052;43.338;25.502;2023-10-13T06:03:29;101087.31;;;13.96;83.39
2268;BME280;11052;43.338;25.502;2023-10-13T06:06:14;101078.75;;;14.19;82.14
2268;BME280;11052;43.338;25.502;2023-10-13T06:08:58;101078.63;;;14.50;80.39
2268;BME280;11052;43.338;25.502;2023-10-13T06:11:43;101085.75;;;14.94;78.24
2268;BME280;11052;43.338;25.502;2023-10-13T06:14:27;101090.16;;;14.92;77.68
2268;BME280;11052;43.338;25.502;2023-10-13T06:17:13;101094.44;;;14.95;78.50
2268;BME280;11052;43.338;25.502;2023-10-13T06:19:57;101086.50;;;14.98;78.52
2268;BME280;11052;43.338;25.502;2023-10-13T06:22:41;101089.97;;;14.98;78.54
2268;BME280;11052;43.338;25.502;2023-10-13T06:25:26;101077.44;;;15.31;79.61
2268;BME280;11052;43.338;25.502;2023-10-13T06:28:10;101093.25;;;15.73;79.15
2268;BME280;11052;43.338;25.502;2023-10-13T06:30:57;101087.56;;;16.08;79.17
2268;BME280;11052;43.338;25.502;2023-10-13T06:33:27;101089.06;;;16.35;77.56
2268;BME280;11052;43.338;25.502;2023-10-13T06:35:58;101079.09;;;16.63;76.70
2268;BME280;11052;43.338;25.502;2023-10-13T06:38:25;101084.38;;;16.84;81.27
2268;BME280;11052;43.338;25.502;2023-10-13T06:40:57;101075.69;;;17.22;77.65
2268;BME280;11052;43.338;25.502;2023-10-13T06:43:24;101075.88;;;17.18;73.41
2268;BME280;11052;43.338;25.502;2023-10-13T06:45:51;101080.00;;;17.23;76.33
2268;BME280;11052;43.338;25.502;2023-10-13T06:48:27;101083.97;;;17.51;76.70
2268;BME280;11052;43.338;25.502;2023-10-13T06:50:58;101084.25;;;17.82;72.79
2268;BME280;11052;43.338;25.502;2023-10-13T06:53:30;101080.56;;;17.86;72.21
2268;BME280;11052;43.338;25.502;2023-10-13T06:56:02;101070.50;;;17.96;71.55
2268;BME280;11052;43.338;25.502;2023-10-13T06:58:29;101072.06;;;18.17;72.78
2268;BME280;11052;43.338;25.502;2023-10-13T07:00:58;101070.88;;;18.23;71.46
2268;BME280;11052;43.338;25.502;2023-10-13T07:03:26;101075.91;;;18.45;72.20
2268;BME280;11052;43.338;25.502;2023-10-13T07:05:53;101077.56;;;18.64;72.04
2268;BME280;11052;43.338;25.502;2023-10-13T07:08:24;101077.00;;;18.92;71.15
2268;BME280;11052;43.338;25.502;2023-10-13T07:10:52;101065.53;;;19.26;69.71
2268;BME280;11052;43.338;25.502;2023-10-13T07:13:28;101061.78;;;19.63;69.35
2268;BME280;11052;43.338;25.502;2023-10-13T07:15:55;101062.00;;;19.90;69.73
2268;BME280;11052;43.338;25.502;2023-10-13T07:18:28;101062.00;;;19.90;67.17
2268;BME280;11052;43.338;25.502;2023-10-13T07:21:02;101056.38;;;19.96;67.88
2268;BME280;11052;43.338;25.502;2023-10-13T07:23:36;101064.94;;;20.00;65.92
2268;BME280;11052;43.338;25.502;2023-10-13T07:26:04;101068.88;;;20.23;65.21
2268;BME280;11052;43.338;25.502;2023-10-13T07:28:34;101071.91;;;20.47;63.39
2268;BME280;11052;43.338;25.502;2023-10-13T07:31:02;101070.13;;;20.47;63.80
2268;BME280;11052;43.338;25.502;2023-10-13T07:33:43;101064.19;;;20.44;63.95
2268;BME280;11052;43.338;25.502;2023-10-13T07:36:10;101062.13;;;20.49;62.02
2268;BME280;11052;43.338;25.502;2023-10-13T07:38:44;101059.06;;;20.71;62.97
2268;BME280;11052;43.338;25.502;2023-10-13T07:41:14;101053.59;;;21.02;62.74
2268;BME280;11052;43.338;25.502;2023-10-13T07:43:43;101057.09;;;21.17;60.75
2268;BME280;11052;43.338;25.502;2023-10-13T07:46:10;101051.34;;;21.39;60.67
2268;BME280;11052;43.338;25.502;2023-10-13T07:48:38;101058.13;;;21.43;60.38
2268;BME280;11052;43.338;25.502;2023-10-13T07:51:12;101048.03;;;21.76;61.89
2268;BME280;11052;43.338;25.502;2023-10-13T07:53:43;101054.56;;;21.98;59.36
2268;BME280;11052;43.338;25.502;2023-10-13T07:56:10;101054.97;;;21.91;60.01
2268;BME280;11052;43.338;25.502;2023-10-13T07:58:38;101058.25;;;22.22;59.52
2268;BME280;11052;43.338;25.502;2023-10-13T08:01:18;101061.78;;;22.35;57.46
2268;BME280;11052;43.338;25.502;2023-10-13T08:03:45;101061.25;;;22.55;57.31
2268;BME280;11052;43.338;25.502;2023-10-13T08:06:15;101056.72;;;22.70;58.55
2268;BME280;11052;43.338;25.502;2023-10-13T08:08:54;101066.16;;;23.12;56.97
2268;BME280;11052;43.338;25.502;2023-10-13T08:11:33;101065.50;;;23.21;54.65
2268;BME280;11052;43.338;25.502;2023-10-13T08:14:03;101062.28;;;23.42;53.62
2268;BME280;11052;43.338;25.502;2023-10-13T08:16:38;101061.09;;;23.46;54.60
2268;BME280;11052;43.338;25.502;2023-10-13T08:19:15;101059.81;;;23.02;54.07
2268;BME280;11052;43.338;25.502;2023-10-13T08:21:45;101066.66;;;22.67;55.63
2268;BME280;11052;43.338;25.502;2023-10-13T08:24:19;101064.03;;;22.67;55.95
2268;BME280;11052;43.338;25.502;2023-10-13T08:26:54;101053.13;;;22.58;56.11
2268;BME280;11052;43.338;25.502;2023-10-13T08:29:41;101051.31;;;22.59;55.68
2268;BME280;11052;43.338;25.502;2023-10-13T08:32:33;101050.47;;;22.71;56.40
2268;BME280;11052;43.338;25.502;2023-10-13T08:35:12;101047.78;;;22.85;55.01
2268;BME280;11052;43.338;25.502;2023-10-13T08:37:54;101045.53;;;23.17;56.18
2268;BME280;11052;43.338;25.502;2023-10-13T08:40:30;101058.34;;;23.47;56.18
2268;BME280;11052;43.338;25.502;2023-10-13T08:43:14;101052.09;;;23.61;55.81
2268;BME280;11052;43.338;25.502;2023-10-13T08:45:43;101054.00;;;23.46;53.25
2268;BME280;11052;43.338;25.502;2023-10-13T08:48:26;101056.81;;;23.69;56.99
2268;BME280;11052;43.338;25.502;2023-10-13T08:51:01;101053.22;;;23.94;55.64
2268;BME280;11052;43.338;25.502;2023-10-13T08:53:40;101045.56;;;24.02;53.69
2268;BME280;11052;43.338;25.502;2023-10-13T08:56:17;101046.69;;;24.10;53.46
2268;BME280;11052;43.338;25.502;2023-10-13T08:59:00;101045.09;;;24.08;52.52
2268;BME280;11052;43.338;25.502;2023-10-13T09:01:34;101044.31;;;24.18;54.00
2268;BME280;11052;43.338;25.502;2023-10-13T09:04:04;101039.16;;;24.28;53.25
2268;BME280;11052;43.338;25.502;2023-10-13T09:06:48;101032.19;;;24.38;53.09
2268;BME280;11052;43.338;25.502;2023-10-13T09:09:28;101029.34;;;24.52;53.12
2268;BME280;11052;43.338;25.502;2023-10-13T09:12:00;101028.63;;;24.62;52.85
2268;BME280;11052;43.338;25.502;2023-10-13T09:14:36;101033.72;;;24.76;52.23
2268;BME280;11052;43.338;25.502;2023-10-13T09:17:06;101021.94;;;25.02;51.15
2268;BME280;11052;43.338;25.502;2023-10-13T09:19:51;101019.78;;;24.96;51.35
2268;BME280;11052;43.338;25.502;2023-10-13T09:22:24;101018.44;;;25.02;50.90
2268;BME280;11052;43.338;25.502;2023-10-13T09:24:59;101021.41;;;25.31;52.60
2268;BME280;11052;43.338;25.502;2023-10-13T09:27:27;101020.06;;;25.47;51.81
2268;BME280;11052;43.338;25.502;2023-10-13T09:29:55;101016.94;;;25.42;50.08
2268;BME280;11052;43.338;25.502;2023-10-13T09:32:22;101019.34;;;25.45;50.74
2268;BME280;11052;43.338;25.502;2023-10-13T09:34:49;101012.19;;;25.57;50.47
2268;BME280;11052;43.338;25.502;2023-10-13T09:37:16;101017.00;;;25.74;48.28
2268;BME280;11052;43.338;25.502;2023-10-13T09:39:49;101016.56;;;26.11;51.50
2268;BME280;11052;43.338;25.502;2023-10-13T09:42:20;101014.50;;;25.94;47.85
2268;BME280;11052;43.338;25.502;2023-10-13T09:44:49;101017.88;;;25.96;48.87
2268;BME280;11052;43.338;25.502;2023-10-13T09:47:22;101007.81;;;26.20;49.57
2268;BME280;11052;43.338;25.502;2023-10-13T09:49:59;101008.56;;;26.43;47.77
2268;BME280;11052;43.338;25.502;2023-10-13T09:52:31;101013.56;;;26.57;46.65
2268;BME280;11052;43.338;25.502;2023-10-13T09:55:18;101002.91;;;26.57;47.27
2268;BME280;11052;43.338;25.502;2023-10-13T09:57:53;101008.81;;;26.61;47.43
2268;BME280;11052;43.338;25.502;2023-10-13T10:00:24;101002.97;;;26.25;45.74
2268;BME280;11052;43.338;25.502;2023-10-13T10:03:09;101000.00;;;25.98;46.13
2268;BME280;11052;43.338;25.502;2023-10-13T10:05:58;100994.09;;;25.94;45.79
2268;BME280;11052;43.338;25.502;2023-10-13T10:08:32;100996.38;;;25.99;47.14
2268;BME280;11052;43.338;25.502;2023-10-13T10:14:12;100989.53;;;26.27;48.29
2268;BME280;11052;43.338;25.502;2023-10-13T10:16:50;100982.31;;;26.50;48.41
2268;BME280;11052;43.338;25.502;2023-10-13T10:19:25;100975.47;;;26.57;45.82
2268;BME280;11052;43.338;25.502;2023-10-13T10:22:01;100981.63;;;26.57;46.04
2268;BME280;11052;43.338;25.502;2023-10-13T10:24:32;100983.59;;;26.55;45.52
2268;BME280;11052;43.338;25.502;2023-10-13T10:27:02;100978.91;;;26.68;45.94
2268;BME280;11052;43.338;25.502;2023-10-13T10:29:31;100981.34;;;26.81;45.30
2268;BME280;11052;43.338;25.502;2023-10-13T10:31:59;100983.91;;;26.62;44.85
2268;BME280;11052;43.338;25.502;2023-10-13T10:34:32;100987.84;;;26.67;44.61
2268;BME280;11052;43.338;25.502;2023-10-13T10:37:01;100985.22;;;26.77;45.14
2268;BME280;11052;43.338;25.502;2023-10-13T10:39:34;100992.41;;;26.86;46.13
2268;BME280;11052;43.338;25.502;2023-10-13T10:42:11;100991.56;;;26.86;44.58
2268;BME280;11052;43.338;25.502;2023-10-13T10:44:44;100989.84;;;26.75;44.97
2268;BME280;11052;43.338;25.502;2023-10-13T10:47:15;100981.78;;;26.86;46.94
2268;BME280;11052;43.338;25.502;2023-10-13T10:49:56;100978.94;;;26.78;46.32
2268;BME280;11052;43.338;25.502;2023-10-13T10:52:23;100977.09;;;26.48;45.27
2268;BME280;11052;43.338;25.502;2023-10-13T10:55:02;100970.06;;;26.37;45.34
2268;BME280;11052;43.338;25.502;2023-10-13T10:57:33;100972.56;;;26.60;46.57
2268;BME280;11052;43.338;25.502;2023-10-13T11:00:05;100971.66;;;26.80;46.28
2268;BME280;11052;43.338;25.502;2023-10-13T11:02:40;100960.75;;;26.83;46.94
2268;BME280;11052;43.338;25.502;2023-10-13T11:05:07;100957.47;;;26.70;44.71
2268;BME280;11052;43.338;25.502;2023-10-13T11:07:35;100968.97;;;26.70;44.57
2268;BME280;11052;43.338;25.502;2023-10-13T11:10:10;100957.09;;;26.74;45.97
2268;BME280;11052;43.338;25.502;2023-10-13T11:12:54;100961.22;;;26.98;45.68
2268;BME280;11052;43.338;25.502;2023-10-13T11:15:23;100951.28;;;27.00;44.89
2268;BME280;11052;43.338;25.502;2023-10-13T11:17:59;100957.31;;;27.02;45.12
2268;BME280;11052;43.338;25.502;2023-10-13T11:20:26;100948.28;;;26.84;44.54
2268;BME280;11052;43.338;25.502;2023-10-13T11:22:59;100946.84;;;26.70;44.80
2268;BME280;11052;43.338;25.502;2023-10-13T11:25:30;100943.22;;;26.71;44.37
2268;BME280;11052;43.338;25.502;2023-10-13T11:28:10;100940.09;;;26.66;44.46
2268;BME280;11052;43.338;25.502;2023-10-13T11:30:44;100933.91;;;26.56;46.22
2268;BME280;11052;43.338;25.502;2023-10-13T11:33:15;100934.91;;;26.64;45.20
2268;BME280;11052;43.338;25.502;2023-10-13T11:35:47;100945.06;;;26.80;44.77
2268;BME280;11052;43.338;25.502;2023-10-13T11:38:28;100940.59;;;26.90;43.34
2268;BME280;11052;43.338;25.502;2023-10-13T11:41:07;100939.69;;;26.70;43.16
2268;BME280;11052;43.338;25.502;2023-10-13T11:43:41;100936.38;;;26.78;43.27
2268;BME280;11052;43.338;25.502;2023-10-13T11:46:33;100936.91;;;26.72;44.37
2268;BME280;11052;43.338;25.502;2023-10-13T11:49:17;100942.22;;;26.72;43.99
2268;BME280;11052;43.338;25.502;2023-10-13T11:51:45;100938.06;;;26.79;44.83
2268;BME280;11052;43.338;25.502;2023-10-13T11:54:13;100938.63;;;26.83;44.88
2268;BME280;11052;43.338;25.502;2023-10-13T11:56:41;100941.16;;;26.84;44.04
2268;BME280;11052;43.338;25.502;2023-10-13T11:59:08;100946.03;;;26.79;43.39
2268;BME280;11052;43.338;25.502;2023-10-13T12:01:44;100933.16;;;26.84;44.86
2268;BME280;11052;43.338;25.502;2023-10-13T12:04:29;100941.44;;;26.91;44.38
2268;BME280;11052;43.338;25.502;2023-10-13T12:07:09;100947.00;;;26.88;44.52
2268;BME280;11052;43.338;25.502;2023-10-13T12:09:47;100943.66;;;26.76;43.92
2268;BME280;11052;43.338;25.502;2023-10-13T12:12:32;100939.66;;;26.61;43.20
2268;BME280;11052;43.338;25.502;2023-10-13T12:15:06;100934.88;;;26.55;44.49
2268;BME280;11052;43.338;25.502;2023-10-13T12:17:41;100937.31;;;26.37;44.02
2268;BME280;11052;43.338;25.502;2023-10-13T13:10:09;100919.94;;;25.70;47.41
2268;BME280;11052;43.338;25.502;2023-10-13T13:12:37;100913.06;;;25.68;47.38
2268;BME280;11052;43.338;25.502;2023-10-13T13:15:05;100912.22;;;25.67;47.38
2268;BME280;11052;43.338;25.502;2023-10-13T13:17:35;100910.28;;;25.69;47.45
2268;BME280;11052;43.338;25.502;2023-10-13T13:20:02;100906.91;;;25.67;47.03
2268;BME280;11052;43.338;25.502;2023-10-13T13:22:37;100911.13;;;25.70;47.48
2268;BME280;11052;43.338;25.502;2023-10-13T13:25:04;100903.53;;;25.65;47.11
2268;BME280;11052;43.338;25.502;2023-10-13T13:27:35;100910.78;;;25.63;47.17
2268;BME280;11052;43.338;25.502;2023-10-13T13:30:08;100911.38;;;25.67;47.29
2268;BME280;11052;43.338;25.502;2023-10-13T13:32:38;100912.13;;;25.58;47.19
2268;BME280;11052;43.338;25.502;2023-10-13T13:35:07;100912.50;;;25.53;46.93
2268;BME280;11052;43.338;25.502;2023-10-13T13:37:39;100910.22;;;25.48;47.14
2268;BME280;11052;43.338;25.502;2023-10-13T13:40:09;100924.84;;;25.43;48.31
2268;BME280;11052;43.338;25.502;2023-10-13T13:42:49;100922.69;;;25.37;48.19
2268;BME280;11052;43.338;25.502;2023-10-13T13:45:17;100918.34;;;25.36;48.15
2268;BME280;11052;43.338;25.502;2023-10-13T13:47:53;100922.72;;;25.26;47.79
2268;BME280;11052;43.338;25.502;2023-10-13T13:50:21;100926.47;;;25.23;47.53
2268;BME280;11052;43.338;25.502;2023-10-13T13:52:52;100921.53;;;25.19;47.44
2268;BME280;11052;43.338;25.502;2023-10-13T13:55:22;100918.22;;;24.94;47.73
2268;BME280;11052;43.338;25.502;2023-10-13T13:57:50;100917.25;;;24.84;48.34
2268;BME280;11052;43.338;25.502;2023-10-13T14:00:18;100920.88;;;24.83;47.98
2268;BME280;11052;43.338;25.502;2023-10-13T14:02:49;100923.78;;;24.80;48.16
2268;BME280;11052;43.338;25.502;2023-10-13T14:05:16;100916.31;;;24.74;48.74
2268;BME280;11052;43.338;25.502;2023-10-13T14:07:43;100922.94;;;24.68;48.38
2268;BME280;11052;43.338;25.502;2023-10-13T14:10:16;100922.56;;;24.62;49.39
2268;BME280;11052;43.338;25.502;2023-10-13T14:13:00;100912.81;;;24.62;49.06
2268;BME280;11052;43.338;25.502;2023-10-13T14:15:38;100909.56;;;24.59;48.91
2268;BME280;11052;43.338;25.502;2023-10-13T14:18:09;100914.25;;;24.55;49.14
2268;BME280;11052;43.338;25.502;2023-10-13T14:20:40;100915.34;;;24.52;49.25